ARKANSAS RIVER NAVIGATION REPORT
  LITTLE ROCK DISTRICT - U.S. ARMY CORPS OF ENGINEERS
  GENERATED: 16 JAN 2022 @ 18:36
 
  NOTE: These data are not guaranteed to be valid or correct.
        RELEASES AND FLOWS ARE IN THOUSANDS OF CFS
  _____________________________________________________________________________
 
                  15JAN     15JAN      15JAN           16JAN          16JAN
                  @1200     @2400     AVERAGE      LATEST OBSERVED    PRECIP.
                  HOURS     HOURS      FLOW         DATA AND TIME     (7A-7A)
  _____________________________________________________________________________
 
  LD13 HW-ELEV    391.24    391.25                391.59  @  17:00       .15
  LD13 TW-ELEV    373.21    371.66                371.03  @  17:00
  LD13 RELEASE     25.4        .1      17.0          .1   @  17:00
 
  OZA.L&D HW-ELEV 372.38    371.71                371.21  @  17:00       .11
  OZA.L&D TW-ELEV 339.15    339.54                337.18  @  17:00
  OZA.L&D RELEASE  27.0      27.8                    .1   @   9:00
 
  DRD.L&D HW-ELEV 337.89    337.91                337.75  @  17:00       .57
  DRD.L&D TW-ELEV 286.14    286.85                285.09  @  17:00
  DRD.L&D RELEASE  19.3      21.7      16.8         0.0   @  17:00
 
  LD09 HW-ELEV    285.58    286.08                285.58  @  17:00       .60
  LD09 TW-ELEV    265.23    266.24                265.02  @  17:00
  LD09 RELEASE      8.0      24.4      12.6         9.1   @  17:00
 
  LD08 HW-ELEV    265.22    265.18                265.16  @  17:00      1.44
  LD08 TW-ELEV    249.54    251.16                250.13  @  17:00
  LD08 RELEASE     14.5      26.0      14.1        12.1   @  17:00
 
  LD07 HW-ELEV    249.21    249.29                249.02  @  17:00       .65
  LD07 TW-ELEV    230.64    230.82                230.44  @  17:00
  LD07 RELEASE     12.7      26.8      12.8        23.6   @  17:00
 
  LD06 HW-ELEV    231.26    231.12                231.00  @  17:00       .79
  LD06 TW-ELEV    213.86    213.97                213.62  @  17:00
  LD06 RELEASE     10.7      27.3      12.1        22.9   @  17:00
 
  LD05 HW-ELEV    213.82    213.28                213.08  @  17:00       .45
  LD05 TW-ELEV    195.93    196.55                196.14  @  17:00
  LD05 RELEASE     11.6      28.9      12.2        25.9   @  16:00
 
  LD04 HW-ELEV    196.40    196.19                195.92  @  17:00       .66
  LD04 TW-ELEV    182.27    183.17                183.04  @  17:00
  LD04 RELEASE       .1      35.0      12.1        28.0   @  17:00
 
  LD03 HW-ELEV    182.20    182.20                182.36  @  17:00       .54
  LD03 TW-ELEV    161.73    163.54                163.89  @  17:00
  LD03 RELEASE       .1      35.9      11.7        27.6   @  17:00
 
  L02 HW-ELEV     162.89    162.51                162.77  @  17:00      1.17
 
  D02 HW-ELEV     163.03    162.66                162.85  @  17:00      1.17
  D02 TW-ELEV     132.98    134.55                134.69  @  17:00
  D02 RELEASE        .2      34.9                  34.5   @   8:00
 
  L01 TW-ELEV     143.53    143.64                143.80  @  17:00       .75
 
  MPLD HW-ELEV    143.00    143.15                143.25  @  17:00       .67	
  MPLD TW-ELEV    142.86    142.99                143.12  @  17:00
 
  WREC DIFF.         .53       .49                   .55
  CLARENDON FLOW   49.25     49.36     49.03       49.71  @  17:00
  HELENA STAGE     32.75     32.80                 32.76  @  17:00
  CAIRO STAGE      39.91     39.78                 39.53  @  17:00
  _____________________________________________________________________________